sensor_id;sensor_type;location;lat;lon;timestamp;P1;durP1;ratioP1;P2;durP2;ratioP2
67828;SDS011;54626;45.436;10.942;2022-10-24T00:01:13;2.80;;;1.40;;
67828;SDS011;54626;45.436;10.942;2022-10-24T00:03:44;7.07;;;2.35;;
67828;SDS011;54626;45.436;10.942;2022-10-24T00:06:13;9.30;;;2.53;;
67828;SDS011;54626;45.436;10.942;2022-10-24T00:08:41;3.50;;;1.65;;
67828;SDS011;54626;45.436;10.942;2022-10-24T00:11:18;3.58;;;1.33;;
67828;SDS011;54626;45.436;10.942;2022-10-24T00:13:47;5.97;;;1.90;;
67828;SDS011;54626;45.436;10.942;2022-10-24T00:16:15;2.97;;;1.75;;
67828;SDS011;54626;45.436;10.942;2022-10-24T00:18:42;4.28;;;1.70;;
67828;SDS011;54626;45.436;10.942;2022-10-24T00:21:11;3.83;;;1.70;;
67828;SDS011;54626;45.436;10.942;2022-10-24T00:23:42;5.63;;;1.70;;
67828;SDS011;54626;45.436;10.942;2022-10-24T00:26:10;3.80;;;1.73;;
67828;SDS011;54626;45.436;10.942;2022-10-24T00:28:37;2.65;;;1.27;;
67828;SDS011;54626;45.436;10.942;2022-10-24T00:31:04;3.63;;;1.75;;
67828;SDS011;54626;45.436;10.942;2022-10-24T00:33:33;4.35;;;1.50;;
67828;SDS011;54626;45.436;10.942;2022-10-24T00:35:59;2.88;;;1.55;;
67828;SDS011;54626;45.436;10.942;2022-10-24T00:38:26;5.38;;;2.20;;
67828;SDS011;54626;45.436;10.942;2022-10-24T00:40:52;2.83;;;1.33;;
67828;SDS011;54626;45.436;10.942;2022-10-24T00:43:20;3.90;;;1.88;;
67828;SDS011;54626;45.436;10.942;2022-10-24T00:45:57;4.38;;;1.67;;
67828;SDS011;54626;45.436;10.942;2022-10-24T00:54:03;5.68;;;2.17;;
67828;SDS011;54626;45.436;10.942;2022-10-24T00:56:34;3.33;;;1.58;;
67828;SDS011;54626;45.436;10.942;2022-10-24T00:59:05;4.82;;;2.20;;
67828;SDS011;54626;45.436;10.942;2022-10-24T01:01:33;4.88;;;1.42;;
67828;SDS011;54626;45.436;10.942;2022-10-24T01:04:00;3.60;;;1.48;;
67828;SDS011;54626;45.436;10.942;2022-10-24T01:15:19;5.70;;;2.10;;
67828;SDS011;54626;45.436;10.942;2022-10-24T01:18:07;3.53;;;1.42;;
67828;SDS011;54626;45.436;10.942;2022-10-24T01:20:44;5.90;;;1.88;;
67828;SDS011;54626;45.436;10.942;2022-10-24T01:23:32;5.25;;;2.15;;
67828;SDS011;54626;45.436;10.942;2022-10-24T01:26:26;3.35;;;1.52;;
67828;SDS011;54626;45.436;10.942;2022-10-24T01:32:12;5.03;;;1.83;;
67828;SDS011;54626;45.436;10.942;2022-10-24T01:34:43;3.40;;;2.15;;
67828;SDS011;54626;45.436;10.942;2022-10-24T01:39:50;5.70;;;2.10;;
67828;SDS011;54626;45.436;10.942;2022-10-24T01:44:53;2.65;;;1.23;;
67828;SDS011;54626;45.436;10.942;2022-10-24T01:47:29;2.00;;;0.95;;
67828;SDS011;54626;45.436;10.942;2022-10-24T01:50:01;5.95;;;2.15;;
67828;SDS011;54626;45.436;10.942;2022-10-24T01:52:33;3.72;;;1.85;;
67828;SDS011;54626;45.436;10.942;2022-10-24T01:55:02;4.53;;;1.92;;
67828;SDS011;54626;45.436;10.942;2022-10-24T01:57:31;4.38;;;2.25;;
67828;SDS011;54626;45.436;10.942;2022-10-24T01:59:59;5.45;;;1.65;;
67828;SDS011;54626;45.436;10.942;2022-10-24T02:02:29;3.17;;;1.10;;
67828;SDS011;54626;45.436;10.942;2022-10-24T02:05:02;2.67;;;1.48;;
67828;SDS011;54626;45.436;10.942;2022-10-24T02:07:33;3.22;;;1.65;;
67828;SDS011;54626;45.436;10.942;2022-10-24T02:10:49;3.80;;;1.60;;
67828;SDS011;54626;45.436;10.942;2022-10-24T02:13:02;3.85;;;1.15;;
67828;SDS011;54626;45.436;10.942;2022-10-24T02:15:41;3.00;;;1.88;;
67828;SDS011;54626;45.436;10.942;2022-10-24T02:18:17;4.15;;;1.60;;
67828;SDS011;54626;45.436;10.942;2022-10-24T02:20:52;4.30;;;1.60;;
67828;SDS011;54626;45.436;10.942;2022-10-24T02:26:02;4.57;;;1.60;;
67828;SDS011;54626;45.436;10.942;2022-10-24T02:28:33;3.58;;;1.52;;
67828;SDS011;54626;45.436;10.942;2022-10-24T02:31:08;4.47;;;1.10;;
67828;SDS011;54626;45.436;10.942;2022-10-24T02:33:41;3.72;;;1.50;;
67828;SDS011;54626;45.436;10.942;2022-10-24T02:36:10;3.70;;;1.10;;
67828;SDS011;54626;45.436;10.942;2022-10-24T02:38:46;3.38;;;1.35;;
67828;SDS011;54626;45.436;10.942;2022-10-24T02:41:19;2.15;;;1.02;;
67828;SDS011;54626;45.436;10.942;2022-10-24T02:43:51;3.08;;;1.25;;
67828;SDS011;54626;45.436;10.942;2022-10-24T02:46:18;4.50;;;1.67;;
67828;SDS011;54626;45.436;10.942;2022-10-24T02:48:54;6.05;;;1.75;;
67828;SDS011;54626;45.436;10.942;2022-10-24T02:51:24;4.05;;;1.40;;
67828;SDS011;54626;45.436;10.942;2022-10-24T02:53:54;6.55;;;2.15;;
67828;SDS011;54626;45.436;10.942;2022-10-24T02:56:20;5.95;;;1.77;;
67828;SDS011;54626;45.436;10.942;2022-10-24T02:58:47;3.42;;;1.80;;
67828;SDS011;54626;45.436;10.942;2022-10-24T03:01:16;2.38;;;1.30;;
67828;SDS011;54626;45.436;10.942;2022-10-24T03:03:43;10.77;;;2.88;;
67828;SDS011;54626;45.436;10.942;2022-10-24T03:06:12;4.55;;;2.15;;
67828;SDS011;54626;45.436;10.942;2022-10-24T03:08:39;6.00;;;1.95;;
67828;SDS011;54626;45.436;10.942;2022-10-24T03:11:08;5.35;;;2.35;;
67828;SDS011;54626;45.436;10.942;2022-10-24T03:13:35;9.05;;;2.50;;
67828;SDS011;54626;45.436;10.942;2022-10-24T03:16:02;7.72;;;2.28;;
67828;SDS011;54626;45.436;10.942;2022-10-24T03:18:34;3.67;;;1.40;;
67828;SDS011;54626;45.436;10.942;2022-10-24T03:21:00;4.68;;;2.35;;
67828;SDS011;54626;45.436;10.942;2022-10-24T03:23:27;5.32;;;1.90;;
67828;SDS011;54626;45.436;10.942;2022-10-24T03:25:55;7.97;;;2.22;;
67828;SDS011;54626;45.436;10.942;2022-10-24T03:28:22;4.93;;;1.90;;
67828;SDS011;54626;45.436;10.942;2022-10-24T03:30:49;4.47;;;1.90;;
67828;SDS011;54626;45.436;10.942;2022-10-24T03:33:15;7.30;;;2.45;;
67828;SDS011;54626;45.436;10.942;2022-10-24T03:35:42;3.75;;;1.55;;
67828;SDS011;54626;45.436;10.942;2022-10-24T03:38:08;7.22;;;2.20;;
67828;SDS011;54626;45.436;10.942;2022-10-24T03:40:35;2.83;;;1.35;;
67828;SDS011;54626;45.436;10.942;2022-10-24T03:43:05;4.57;;;2.03;;
67828;SDS011;54626;45.436;10.942;2022-10-24T03:45:31;4.53;;;1.67;;
67828;SDS011;54626;45.436;10.942;2022-10-24T03:47:58;3.97;;;1.50;;
67828;SDS011;54626;45.436;10.942;2022-10-24T03:52:57;4.82;;;1.95;;
67828;SDS011;54626;45.436;10.942;2022-10-24T03:55:26;4.55;;;1.67;;
67828;SDS011;54626;45.436;10.942;2022-10-24T03:57:54;4.45;;;2.08;;
67828;SDS011;54626;45.436;10.942;2022-10-24T04:00:21;4.45;;;1.65;;
67828;SDS011;54626;45.436;10.942;2022-10-24T04:02:48;7.35;;;1.85;;
67828;SDS011;54626;45.436;10.942;2022-10-24T04:05:17;7.18;;;1.90;;
67828;SDS011;54626;45.436;10.942;2022-10-24T04:07:46;5.93;;;1.88;;
67828;SDS011;54626;45.436;10.942;2022-10-24T04:10:13;4.63;;;2.03;;
67828;SDS011;54626;45.436;10.942;2022-10-24T04:12:40;6.05;;;2.45;;
67828;SDS011;54626;45.436;10.942;2022-10-24T04:15:06;7.85;;;2.10;;
67828;SDS011;54626;45.436;10.942;2022-10-24T04:17:33;2.97;;;1.23;;
67828;SDS011;54626;45.436;10.942;2022-10-24T04:19:59;6.28;;;2.47;;
67828;SDS011;54626;45.436;10.942;2022-10-24T04:22:26;5.13;;;2.70;;
67828;SDS011;54626;45.436;10.942;2022-10-24T04:24:52;5.47;;;2.53;;
67828;SDS011;54626;45.436;10.942;2022-10-24T04:27:19;5.07;;;2.38;;
67828;SDS011;54626;45.436;10.942;2022-10-24T04:29:46;2.95;;;1.70;;
67828;SDS011;54626;45.436;10.942;2022-10-24T04:32:12;5.57;;;2.47;;
67828;SDS011;54626;45.436;10.942;2022-10-24T04:34:39;6.60;;;2.47;;
67828;SDS011;54626;45.436;10.942;2022-10-24T04:37:08;5.13;;;2.13;;
67828;SDS011;54626;45.436;10.942;2022-10-24T04:39:34;4.63;;;1.88;;
67828;SDS011;54626;45.436;10.942;2022-10-24T04:42:01;5.03;;;2.22;;
67828;SDS011;54626;45.436;10.942;2022-10-24T04:44:28;5.03;;;2.10;;
67828;SDS011;54626;45.436;10.942;2022-10-24T04:46:57;7.68;;;2.30;;
67828;SDS011;54626;45.436;10.942;2022-10-24T04:49:23;6.90;;;2.45;;
67828;SDS011;54626;45.436;10.942;2022-10-24T04:51:50;4.22;;;1.45;;
67828;SDS011;54626;45.436;10.942;2022-10-24T04:54:17;9.27;;;2.80;;
67828;SDS011;54626;45.436;10.942;2022-10-24T04:56:47;12.45;;;3.00;;
67828;SDS011;54626;45.436;10.942;2022-10-24T04:59:13;5.30;;;1.92;;
67828;SDS011;54626;45.436;10.942;2022-10-24T05:01:40;4.25;;;1.88;;
67828;SDS011;54626;45.436;10.942;2022-10-24T05:04:07;5.25;;;1.83;;
67828;SDS011;54626;45.436;10.942;2022-10-24T05:06:43;3.47;;;1.70;;
67828;SDS011;54626;45.436;10.942;2022-10-24T05:09:10;6.80;;;2.33;;
67828;SDS011;54626;45.436;10.942;2022-10-24T05:11:37;4.13;;;1.95;;
67828;SDS011;54626;45.436;10.942;2022-10-24T05:14:03;5.57;;;1.63;;
67828;SDS011;54626;45.436;10.942;2022-10-24T05:16:31;8.65;;;2.45;;
67828;SDS011;54626;45.436;10.942;2022-10-24T05:18:57;6.13;;;2.13;;
67828;SDS011;54626;45.436;10.942;2022-10-24T05:21:24;6.28;;;2.22;;
67828;SDS011;54626;45.436;10.942;2022-10-24T05:23:53;2.88;;;1.40;;
67828;SDS011;54626;45.436;10.942;2022-10-24T05:26:20;4.55;;;1.83;;
67828;SDS011;54626;45.436;10.942;2022-10-24T05:28:46;2.88;;;1.45;;
67828;SDS011;54626;45.436;10.942;2022-10-24T05:31:17;5.35;;;2.08;;
67828;SDS011;54626;45.436;10.942;2022-10-24T05:33:44;4.50;;;1.83;;
67828;SDS011;54626;45.436;10.942;2022-10-24T05:36:10;5.78;;;1.52;;
67828;SDS011;54626;45.436;10.942;2022-10-24T05:38:37;3.05;;;1.50;;
67828;SDS011;54626;45.436;10.942;2022-10-24T05:41:03;5.28;;;2.40;;
67828;SDS011;54626;45.436;10.942;2022-10-24T05:43:30;4.55;;;1.90;;
67828;SDS011;54626;45.436;10.942;2022-10-24T05:45:59;7.70;;;2.47;;
67828;SDS011;54626;45.436;10.942;2022-10-24T05:48:25;4.28;;;1.80;;
67828;SDS011;54626;45.436;10.942;2022-10-24T05:50:58;5.20;;;2.67;;
67828;SDS011;54626;45.436;10.942;2022-10-24T05:53:25;4.72;;;2.20;;
67828;SDS011;54626;45.436;10.942;2022-10-24T05:55:52;3.92;;;1.73;;
67828;SDS011;54626;45.436;10.942;2022-10-24T05:58:18;3.58;;;1.50;;
67828;SDS011;54626;45.436;10.942;2022-10-24T06:00:47;4.82;;;2.00;;
67828;SDS011;54626;45.436;10.942;2022-10-24T06:03:20;4.28;;;2.17;;
67828;SDS011;54626;45.436;10.942;2022-10-24T06:05:47;5.38;;;2.67;;
67828;SDS011;54626;45.436;10.942;2022-10-24T06:08:14;2.17;;;1.42;;
67828;SDS011;54626;45.436;10.942;2022-10-24T06:10:46;3.50;;;1.65;;
67828;SDS011;54626;45.436;10.942;2022-10-24T06:15:40;6.43;;;2.22;;
67828;SDS011;54626;45.436;10.942;2022-10-24T06:18:15;9.02;;;2.83;;
67828;SDS011;54626;45.436;10.942;2022-10-24T06:20:42;6.07;;;2.28;;
67828;SDS011;54626;45.436;10.942;2022-10-24T06:23:09;11.18;;;2.83;;
67828;SDS011;54626;45.436;10.942;2022-10-24T06:25:35;4.25;;;2.00;;
67828;SDS011;54626;45.436;10.942;2022-10-24T06:28:02;2.80;;;1.75;;
67828;SDS011;54626;45.436;10.942;2022-10-24T06:30:38;9.13;;;2.33;;
67828;SDS011;54626;45.436;10.942;2022-10-24T06:33:05;5.40;;;2.63;;
67828;SDS011;54626;45.436;10.942;2022-10-24T06:35:31;4.63;;;2.05;;
67828;SDS011;54626;45.436;10.942;2022-10-24T06:37:58;4.45;;;1.83;;
67828;SDS011;54626;45.436;10.942;2022-10-24T06:40:24;4.93;;;1.90;;
67828;SDS011;54626;45.436;10.942;2022-10-24T06:42:51;7.45;;;2.92;;
67828;SDS011;54626;45.436;10.942;2022-10-24T06:45:18;5.28;;;2.10;;
67828;SDS011;54626;45.436;10.942;2022-10-24T06:47:46;8.88;;;3.15;;
67828;SDS011;54626;45.436;10.942;2022-10-24T06:50:21;11.18;;;3.08;;
67828;SDS011;54626;45.436;10.942;2022-10-24T06:52:48;10.02;;;3.50;;
67828;SDS011;54626;45.436;10.942;2022-10-24T06:55:15;6.45;;;2.88;;
67828;SDS011;54626;45.436;10.942;2022-10-24T06:57:41;8.68;;;3.00;;
67828;SDS011;54626;45.436;10.942;2022-10-24T07:00:09;12.35;;;3.25;;
67828;SDS011;54626;45.436;10.942;2022-10-24T07:02:40;8.15;;;3.17;;
67828;SDS011;54626;45.436;10.942;2022-10-24T07:05:07;11.93;;;3.00;;
67828;SDS011;54626;45.436;10.942;2022-10-24T07:07:40;10.15;;;3.97;;
67828;SDS011;54626;45.436;10.942;2022-10-24T07:10:13;11.73;;;3.45;;
67828;SDS011;54626;45.436;10.942;2022-10-24T07:12:40;11.77;;;4.57;;
67828;SDS011;54626;45.436;10.942;2022-10-24T07:15:09;9.07;;;3.30;;
67828;SDS011;54626;45.436;10.942;2022-10-24T07:17:42;10.95;;;2.92;;
67828;SDS011;54626;45.436;10.942;2022-10-24T07:20:13;8.95;;;3.42;;
67828;SDS011;54626;45.436;10.942;2022-10-24T07:22:40;8.70;;;2.90;;
67828;SDS011;54626;45.436;10.942;2022-10-24T07:25:08;15.95;;;4.35;;
67828;SDS011;54626;45.436;10.942;2022-10-24T07:27:37;11.88;;;4.55;;
67828;SDS011;54626;45.436;10.942;2022-10-24T07:30:04;15.18;;;4.25;;
67828;SDS011;54626;45.436;10.942;2022-10-24T07:32:35;9.98;;;3.00;;
67828;SDS011;54626;45.436;10.942;2022-10-24T07:35:03;7.60;;;2.95;;
67828;SDS011;54626;45.436;10.942;2022-10-24T07:37:32;8.57;;;3.80;;
67828;SDS011;54626;45.436;10.942;2022-10-24T07:40:01;11.32;;;3.92;;
67828;SDS011;54626;45.436;10.942;2022-10-24T07:42:30;8.73;;;2.70;;
67828;SDS011;54626;45.436;10.942;2022-10-24T07:44:57;6.03;;;2.35;;
67828;SDS011;54626;45.436;10.942;2022-10-24T07:47:24;12.20;;;4.22;;
67828;SDS011;54626;45.436;10.942;2022-10-24T07:49:50;9.15;;;3.83;;
67828;SDS011;54626;45.436;10.942;2022-10-24T07:52:18;13.38;;;5.55;;
67828;SDS011;54626;45.436;10.942;2022-10-24T07:54:45;14.05;;;5.30;;
67828;SDS011;54626;45.436;10.942;2022-10-24T07:57:14;9.48;;;4.13;;
67828;SDS011;54626;45.436;10.942;2022-10-24T07:59:42;13.32;;;5.03;;
67828;SDS011;54626;45.436;10.942;2022-10-24T08:02:10;22.08;;;6.72;;
67828;SDS011;54626;45.436;10.942;2022-10-24T08:04:40;13.77;;;4.88;;
67828;SDS011;54626;45.436;10.942;2022-10-24T08:07:14;17.27;;;4.85;;
67828;SDS011;54626;45.436;10.942;2022-10-24T08:09:42;17.83;;;5.38;;
67828;SDS011;54626;45.436;10.942;2022-10-24T08:12:12;13.30;;;6.00;;
67828;SDS011;54626;45.436;10.942;2022-10-24T08:14:41;13.25;;;5.05;;
67828;SDS011;54626;45.436;10.942;2022-10-24T08:17:09;13.85;;;5.40;;
67828;SDS011;54626;45.436;10.942;2022-10-24T08:19:37;9.70;;;3.25;;
67828;SDS011;54626;45.436;10.942;2022-10-24T08:22:09;12.02;;;6.30;;
67828;SDS011;54626;45.436;10.942;2022-10-24T08:24:36;13.88;;;5.15;;
67828;SDS011;54626;45.436;10.942;2022-10-24T08:27:03;13.30;;;5.40;;
67828;SDS011;54626;45.436;10.942;2022-10-24T08:29:30;16.25;;;5.80;;
67828;SDS011;54626;45.436;10.942;2022-10-24T08:31:57;17.52;;;6.25;;
67828;SDS011;54626;45.436;10.942;2022-10-24T08:34:25;11.93;;;5.32;;
67828;SDS011;54626;45.436;10.942;2022-10-24T08:36:51;13.77;;;5.30;;
67828;SDS011;54626;45.436;10.942;2022-10-24T08:39:19;12.02;;;5.07;;
67828;SDS011;54626;45.436;10.942;2022-10-24T08:41:54;13.38;;;5.60;;
67828;SDS011;54626;45.436;10.942;2022-10-24T08:44:36;12.93;;;5.25;;
67828;SDS011;54626;45.436;10.942;2022-10-24T08:47:30;9.85;;;4.43;;
67828;SDS011;54626;45.436;10.942;2022-10-24T08:52:37;12.27;;;5.43;;
67828;SDS011;54626;45.436;10.942;2022-10-24T08:55:31;9.50;;;4.57;;
67828;SDS011;54626;45.436;10.942;2022-10-24T09:01:06;11.60;;;4.95;;
67828;SDS011;54626;45.436;10.942;2022-10-24T09:06:27;11.85;;;5.72;;
67828;SDS011;54626;45.436;10.942;2022-10-24T09:08:57;12.50;;;5.57;;
67828;SDS011;54626;45.436;10.942;2022-10-24T09:16:44;7.20;;;3.35;;
67828;SDS011;54626;45.436;10.942;2022-10-24T09:19:14;12.23;;;5.22;;
67828;SDS011;54626;45.436;10.942;2022-10-24T09:21:51;12.65;;;5.05;;
67828;SDS011;54626;45.436;10.942;2022-10-24T09:24:25;12.95;;;5.70;;
67828;SDS011;54626;45.436;10.942;2022-10-24T09:27:22;16.30;;;6.28;;
67828;SDS011;54626;45.436;10.942;2022-10-24T09:29:51;15.43;;;6.32;;
67828;SDS011;54626;45.436;10.942;2022-10-24T09:32:21;14.38;;;5.90;;
67828;SDS011;54626;45.436;10.942;2022-10-24T09:35:15;16.23;;;5.55;;
67828;SDS011;54626;45.436;10.942;2022-10-24T09:37:55;17.20;;;7.18;;
67828;SDS011;54626;45.436;10.942;2022-10-24T09:40:28;20.17;;;8.73;;
67828;SDS011;54626;45.436;10.942;2022-10-24T09:45:52;13.63;;;5.40;;
67828;SDS011;54626;45.436;10.942;2022-10-24T09:56:47;15.20;;;5.85;;
67828;SDS011;54626;45.436;10.942;2022-10-24T10:05:17;9.93;;;4.72;;
67828;SDS011;54626;45.436;10.942;2022-10-24T10:07:45;12.13;;;5.22;;
67828;SDS011;54626;45.436;10.942;2022-10-24T10:15:29;13.80;;;5.85;;
67828;SDS011;54626;45.436;10.942;2022-10-24T10:18:27;11.63;;;5.15;;
67828;SDS011;54626;45.436;10.942;2022-10-24T10:28:56;16.20;;;6.05;;
67828;SDS011;54626;45.436;10.942;2022-10-24T10:31:46;12.27;;;5.18;;
67828;SDS011;54626;45.436;10.942;2022-10-24T10:34:27;11.55;;;4.47;;
67828;SDS011;54626;45.436;10.942;2022-10-24T10:39:57;12.32;;;5.40;;
67828;SDS011;54626;45.436;10.942;2022-10-24T10:42:59;11.57;;;5.35;;
67828;SDS011;54626;45.436;10.942;2022-10-24T10:49:37;18.15;;;5.72;;
67828;SDS011;54626;45.436;10.942;2022-10-24T10:57:49;13.50;;;5.13;;
67828;SDS011;54626;45.436;10.942;2022-10-24T11:00:25;12.07;;;5.15;;
67828;SDS011;54626;45.436;10.942;2022-10-24T11:03:29;13.90;;;5.50;;
67828;SDS011;54626;45.436;10.942;2022-10-24T11:11:51;10.05;;;5.35;;
67828;SDS011;54626;45.436;10.942;2022-10-24T11:20:05;12.00;;;5.00;;
67828;SDS011;54626;45.436;10.942;2022-10-24T11:22:48;10.13;;;5.10;;
67828;SDS011;54626;45.436;10.942;2022-10-24T11:25:29;8.93;;;4.57;;
67828;SDS011;54626;45.436;10.942;2022-10-24T11:28:15;12.50;;;5.45;;
67828;SDS011;54626;45.436;10.942;2022-10-24T11:33:56;10.32;;;4.60;;
67828;SDS011;54626;45.436;10.942;2022-10-24T11:36:40;10.48;;;4.85;;
67828;SDS011;54626;45.436;10.942;2022-10-24T11:39:14;9.38;;;4.30;;
67828;SDS011;54626;45.436;10.942;2022-10-24T11:41:52;10.40;;;4.70;;
67828;SDS011;54626;45.436;10.942;2022-10-24T11:44:35;12.90;;;6.22;;
67828;SDS011;54626;45.436;10.942;2022-10-24T11:47:11;9.70;;;4.72;;
67828;SDS011;54626;45.436;10.942;2022-10-24T11:52:41;10.18;;;4.70;;
67828;SDS011;54626;45.436;10.942;2022-10-24T11:55:20;11.13;;;5.50;;
67828;SDS011;54626;45.436;10.942;2022-10-24T11:57:54;11.57;;;4.90;;
67828;SDS011;54626;45.436;10.942;2022-10-24T12:00:26;11.90;;;4.97;;
67828;SDS011;54626;45.436;10.942;2022-10-24T12:03:06;8.70;;;3.53;;
67828;SDS011;54626;45.436;10.942;2022-10-24T12:19:42;12.90;;;4.97;;
67828;SDS011;54626;45.436;10.942;2022-10-24T12:22:14;12.00;;;3.72;;
67828;SDS011;54626;45.436;10.942;2022-10-24T12:24:47;8.55;;;4.75;;
67828;SDS011;54626;45.436;10.942;2022-10-24T12:27:26;7.38;;;3.65;;
67828;SDS011;54626;45.436;10.942;2022-10-24T12:32:39;7.88;;;4.05;;
67828;SDS011;54626;45.436;10.942;2022-10-24T12:37:56;11.85;;;4.10;;
67828;SDS011;54626;45.436;10.942;2022-10-24T12:45:55;9.00;;;4.40;;
67828;SDS011;54626;45.436;10.942;2022-10-24T12:48:28;10.82;;;4.97;;
67828;SDS011;54626;45.436;10.942;2022-10-24T12:53:32;8.77;;;4.15;;
67828;SDS011;54626;45.436;10.942;2022-10-24T12:56:07;9.43;;;4.32;;
67828;SDS011;54626;45.436;10.942;2022-10-24T12:58:37;9.95;;;3.97;;
67828;SDS011;54626;45.436;10.942;2022-10-24T13:01:21;12.38;;;5.05;;
67828;SDS011;54626;45.436;10.942;2022-10-24T13:03:57;11.85;;;4.50;;
67828;SDS011;54626;45.436;10.942;2022-10-24T13:09:42;8.40;;;4.32;;
67828;SDS011;54626;45.436;10.942;2022-10-24T13:12:31;9.00;;;4.15;;
67828;SDS011;54626;45.436;10.942;2022-10-24T13:15:13;10.85;;;4.53;;
67828;SDS011;54626;45.436;10.942;2022-10-24T13:20:41;8.98;;;4.45;;
67828;SDS011;54626;45.436;10.942;2022-10-24T13:23:17;9.10;;;4.60;;
67828;SDS011;54626;45.436;10.942;2022-10-24T13:25:48;12.75;;;4.75;;
67828;SDS011;54626;45.436;10.942;2022-10-24T13:30:45;5.82;;;3.80;;
67828;SDS011;54626;45.436;10.942;2022-10-24T13:36:11;10.20;;;4.85;;
67828;SDS011;54626;45.436;10.942;2022-10-24T13:38:55;11.57;;;4.28;;
67828;SDS011;54626;45.436;10.942;2022-10-24T13:41:43;7.38;;;3.53;;
67828;SDS011;54626;45.436;10.942;2022-10-24T13:47:21;11.88;;;4.18;;
67828;SDS011;54626;45.436;10.942;2022-10-24T13:49:58;12.82;;;5.05;;
67828;SDS011;54626;45.436;10.942;2022-10-24T13:52:47;11.15;;;4.80;;
67828;SDS011;54626;45.436;10.942;2022-10-24T13:55:30;12.07;;;5.35;;
67828;SDS011;54626;45.436;10.942;2022-10-24T14:00:33;12.38;;;5.15;;
67828;SDS011;54626;45.436;10.942;2022-10-24T14:03:03;10.73;;;4.63;;
67828;SDS011;54626;45.436;10.942;2022-10-24T14:05:39;9.77;;;5.03;;
67828;SDS011;54626;45.436;10.942;2022-10-24T14:08:18;13.85;;;5.35;;
67828;SDS011;54626;45.436;10.942;2022-10-24T14:10:49;9.43;;;5.22;;
67828;SDS011;54626;45.436;10.942;2022-10-24T14:13:20;12.82;;;6.30;;
67828;SDS011;54626;45.436;10.942;2022-10-24T14:15:52;9.98;;;4.57;;
67828;SDS011;54626;45.436;10.942;2022-10-24T14:18:22;11.77;;;4.85;;
67828;SDS011;54626;45.436;10.942;2022-10-24T14:20:57;12.80;;;4.90;;
67828;SDS011;54626;45.436;10.942;2022-10-24T14:23:28;13.57;;;5.32;;
67828;SDS011;54626;45.436;10.942;2022-10-24T14:25:57;12.50;;;5.28;;
67828;SDS011;54626;45.436;10.942;2022-10-24T14:28:29;8.88;;;4.18;;
67828;SDS011;54626;45.436;10.942;2022-10-24T14:31:02;7.43;;;3.80;;
67828;SDS011;54626;45.436;10.942;2022-10-24T14:33:43;10.50;;;5.07;;
67828;SDS011;54626;45.436;10.942;2022-10-24T14:36:13;14.23;;;5.80;;
67828;SDS011;54626;45.436;10.942;2022-10-24T14:38:47;9.98;;;5.35;;
67828;SDS011;54626;45.436;10.942;2022-10-24T14:41:16;12.75;;;5.75;;
67828;SDS011;54626;45.436;10.942;2022-10-24T14:43:45;10.75;;;4.70;;
67828;SDS011;54626;45.436;10.942;2022-10-24T14:48:42;11.60;;;4.95;;
67828;SDS011;54626;45.436;10.942;2022-10-24T14:51:30;13.25;;;5.60;;
67828;SDS011;54626;45.436;10.942;2022-10-24T14:54:20;9.07;;;4.32;;
67828;SDS011;54626;45.436;10.942;2022-10-24T14:56:49;8.85;;;4.30;;
67828;SDS011;54626;45.436;10.942;2022-10-24T14:59:37;11.10;;;4.97;;
67828;SDS011;54626;45.436;10.942;2022-10-24T15:07:53;12.52;;;4.72;;
67828;SDS011;54626;45.436;10.942;2022-10-24T15:10:46;14.27;;;5.90;;
67828;SDS011;54626;45.436;10.942;2022-10-24T15:13:18;7.95;;;4.18;;
67828;SDS011;54626;45.436;10.942;2022-10-24T15:15:54;11.30;;;4.55;;
67828;SDS011;54626;45.436;10.942;2022-10-24T15:20:52;14.00;;;5.85;;
67828;SDS011;54626;45.436;10.942;2022-10-24T15:23:31;15.75;;;6.38;;
67828;SDS011;54626;45.436;10.942;2022-10-24T15:26:32;11.98;;;4.90;;
67828;SDS011;54626;45.436;10.942;2022-10-24T15:29:07;11.48;;;4.78;;
67828;SDS011;54626;45.436;10.942;2022-10-24T15:31:51;10.70;;;5.15;;
67828;SDS011;54626;45.436;10.942;2022-10-24T15:34:19;19.02;;;6.15;;
67828;SDS011;54626;45.436;10.942;2022-10-24T15:36:47;12.88;;;5.43;;
67828;SDS011;54626;45.436;10.942;2022-10-24T15:39:16;12.57;;;5.90;;
67828;SDS011;54626;45.436;10.942;2022-10-24T15:41:45;12.68;;;4.93;;
67828;SDS011;54626;45.436;10.942;2022-10-24T15:44:23;10.73;;;5.07;;
67828;SDS011;54626;45.436;10.942;2022-10-24T15:46:53;11.45;;;5.32;;
67828;SDS011;54626;45.436;10.942;2022-10-24T15:49:20;9.95;;;5.00;;
67828;SDS011;54626;45.436;10.942;2022-10-24T15:51:48;10.32;;;4.32;;
67828;SDS011;54626;45.436;10.942;2022-10-24T15:54:16;12.13;;;4.55;;
67828;SDS011;54626;45.436;10.942;2022-10-24T15:56:47;14.18;;;5.22;;
67828;SDS011;54626;45.436;10.942;2022-10-24T15:59:16;15.55;;;4.82;;
67828;SDS011;54626;45.436;10.942;2022-10-24T16:01:48;6.38;;;3.45;;
67828;SDS011;54626;45.436;10.942;2022-10-24T16:04:18;12.30;;;5.43;;
67828;SDS011;54626;45.436;10.942;2022-10-24T16:06:48;13.52;;;5.57;;
67828;SDS011;54626;45.436;10.942;2022-10-24T16:09:19;11.45;;;5.78;;
67828;SDS011;54626;45.436;10.942;2022-10-24T16:11:52;10.10;;;4.60;;
67828;SDS011;54626;45.436;10.942;2022-10-24T16:14:24;8.90;;;4.70;;
67828;SDS011;54626;45.436;10.942;2022-10-24T16:22:16;11.10;;;4.15;;
67828;SDS011;54626;45.436;10.942;2022-10-24T16:24:46;9.80;;;3.95;;
67828;SDS011;54626;45.436;10.942;2022-10-24T16:27:15;9.30;;;3.90;;
67828;SDS011;54626;45.436;10.942;2022-10-24T16:29:44;9.82;;;4.25;;
67828;SDS011;54626;45.436;10.942;2022-10-24T16:32:12;11.43;;;4.35;;
67828;SDS011;54626;45.436;10.942;2022-10-24T16:34:41;11.25;;;4.05;;
67828;SDS011;54626;45.436;10.942;2022-10-24T16:37:15;9.95;;;4.35;;
67828;SDS011;54626;45.436;10.942;2022-10-24T16:39:44;10.05;;;4.13;;
67828;SDS011;54626;45.436;10.942;2022-10-24T16:42:10;10.07;;;4.25;;
67828;SDS011;54626;45.436;10.942;2022-10-24T16:44:37;12.95;;;4.70;;
67828;SDS011;54626;45.436;10.942;2022-10-24T16:47:19;8.40;;;4.25;;
67828;SDS011;54626;45.436;10.942;2022-10-24T16:49:46;10.55;;;3.90;;
67828;SDS011;54626;45.436;10.942;2022-10-24T16:52:13;14.30;;;5.47;;
67828;SDS011;54626;45.436;10.942;2022-10-24T16:54:39;12.50;;;5.60;;
67828;SDS011;54626;45.436;10.942;2022-10-24T16:57:06;13.90;;;5.60;;
67828;SDS011;54626;45.436;10.942;2022-10-24T16:59:32;12.13;;;5.30;;
67828;SDS011;54626;45.436;10.942;2022-10-24T17:01:59;9.90;;;5.18;;
67828;SDS011;54626;45.436;10.942;2022-10-24T17:04:26;14.55;;;5.78;;
67828;SDS011;54626;45.436;10.942;2022-10-24T17:06:58;12.52;;;5.55;;
67828;SDS011;54626;45.436;10.942;2022-10-24T17:09:25;15.27;;;4.97;;
67828;SDS011;54626;45.436;10.942;2022-10-24T17:11:52;12.48;;;5.35;;
67828;SDS011;54626;45.436;10.942;2022-10-24T17:14:22;12.82;;;5.05;;
67828;SDS011;54626;45.436;10.942;2022-10-24T17:16:49;13.00;;;5.55;;
67828;SDS011;54626;45.436;10.942;2022-10-24T17:19:15;12.07;;;5.25;;
67828;SDS011;54626;45.436;10.942;2022-10-24T17:21:43;11.63;;;4.85;;
67828;SDS011;54626;45.436;10.942;2022-10-24T17:24:12;12.27;;;5.47;;
67828;SDS011;54626;45.436;10.942;2022-10-24T17:26:40;17.77;;;5.68;;
67828;SDS011;54626;45.436;10.942;2022-10-24T17:29:07;13.95;;;5.55;;
67828;SDS011;54626;45.436;10.942;2022-10-24T17:31:37;10.25;;;4.80;;
67828;SDS011;54626;45.436;10.942;2022-10-24T17:34:03;14.30;;;5.40;;
67828;SDS011;54626;45.436;10.942;2022-10-24T17:36:31;12.63;;;5.55;;
67828;SDS011;54626;45.436;10.942;2022-10-24T17:39:11;14.38;;;5.63;;